ESGR/KVB METAR and TAF weather

Enter ICAO airport designator
Station Type Date Time Source
ESGR METAR 2019/12/14 19:20 UTC NOAA

ESGR 141920Z AUTO 14006KT 5000 -DZ FEW009/// SCT014/// BKN021/// 03/02 Q0983 REDZ


Station Type Date Time Source
ESGR Decoded METAR 2019/12/14 19:20 UTC NOAA

Skovde Flygplats, Sweden (ESGR) 58-27N 013-58E 105M
Dec 14, 2019 - 02:20 PM EST / 2019.12.14 1920 UTC
Wind: from the SE (140 degrees) at 7 MPH (6 KT):0
Visibility: 3 mile(s):0
Sky conditions: mostly cloudy
Weather: light drizzle
Temperature: 37 F (3 C)
Dew Point: 35 F (2 C)
Relative Humidity: 93%
Pressure (altimeter): 29.03 in. Hg (0983 hPa)
ob: ESGR 141920Z AUTO 14006KT 5000 -DZ FEW009/// SCT014/// BKN021/// 03/02 Q0983 REDZ
cycle: 19

Station Type Date Time Source
ESGR TAF 2009/06/28 04:50 UTC NOAA

METAR ESGR 280450Z AUTO VRB02KT 9999NDV NCD 17/12 Q1020

Example: see airport list